Dades meteomassalio
Diari Summary for Octubre 25, 2017 Units:  Metric    English   Both
« Previous Day
Next Day »
Diari Semanal Mensual Anual Personalitzat
  Maxima: Minima: Mijana:
Temperatura: 26.1 °C 3.3 °C 12.8 °C
Rosada: 10.1 °C -1.6 °C 3.4 °C
Humitat: 75 % 31 % 56 %
Velocitat del vent: 22.2 km/h 0.0 km/h 3.5 km/h
Racha vent: 22.2 km/h - -
Vent:- - West
Pressio: 1028.0 hPa 1024.9 hPa -
Pluja: 0.0 mm    
Historical Graphs
 
 
Tabular Data for Octubre 25, 2017
Time Temperature Dew Point Pressure Wind Wind Speed Wind Gust Humidity Rainfall Rate (Hourly) solar Conditions
00:01 8.3 °C 0.6 °C 1026.6 hPa Calm     58 % 0.0 mm 0.0 W/m2 CLR
00:06 7.8 °C 0.0 °C 1026.6 hPa Calm     58 % 0.0 mm 0.0 W/m2 CLR
00:11 7.8 °C 0.3 °C 1026.6 hPa Calm     59 % 0.0 mm 0.0 W/m2 CLR
00:16 7.8 °C 0.3 °C 1026.6 hPa Calm     59 % 0.0 mm 0.0 W/m2 CLR
00:21 7.8 °C 0.3 °C 1026.6 hPa Calm     59 % 0.0 mm 0.0 W/m2 CLR
00:26 8.3 °C 1.0 °C 1026.6 hPa Calm     60 % 0.0 mm 0.0 W/m2 CLR
00:31 8.3 °C 1.0 °C 1026.6 hPa Calm     60 % 0.0 mm 0.0 W/m2 CLR
00:36 8.3 °C 0.8 °C 1026.6 hPa Calm     59 % 0.0 mm 0.0 W/m2 CLR
00:41 7.8 °C 0.3 °C 1026.6 hPa Calm     59 % 0.0 mm 0.0 W/m2 CLR
00:46 7.8 °C 0.5 °C 1026.6 hPa Calm     60 % 0.0 mm 0.0 W/m2 CLR
00:51 7.2 °C -0.1 °C 1026.6 hPa Calm     60 % 0.0 mm 0.0 W/m2 CLR
00:56 7.2 °C 0.2 °C 1026.6 hPa Calm     61 % 0.0 mm 0.0 W/m2 CLR
01:01 6.7 °C -0.3 °C 1026.6 hPa Calm     61 % 0.0 mm 0.0 W/m2 CLR
01:06 6.7 °C -0.3 °C 1026.6 hPa Calm     61 % 0.0 mm 0.0 W/m2 CLR
01:11 6.7 °C -0.1 °C 1026.6 hPa Calm     62 % 0.0 mm 0.0 W/m2 CLR
01:16 6.7 °C -0.1 °C 1026.6 hPa Calm     62 % 0.0 mm 0.0 W/m2 CLR
01:21 6.7 °C -0.1 °C 1026.6 hPa Calm     62 % 0.0 mm 0.0 W/m2 CLR
01:26 6.7 °C -0.3 °C 1026.6 hPa Calm     61 % 0.0 mm 0.0 W/m2 CLR
01:31 6.7 °C -0.3 °C 1026.6 hPa Calm     61 % 0.0 mm 0.0 W/m2 CLR
01:36 6.1 °C -0.8 °C 1026.3 hPa Calm     61 % 0.0 mm 0.0 W/m2 CLR
01:41 6.1 °C -1.1 °C 1026.3 hPa Calm     60 % 0.0 mm 0.0 W/m2 CLR
01:46 6.1 °C -1.1 °C 1026.6 hPa Calm     60 % 0.0 mm 0.0 W/m2 CLR
01:51 6.1 °C -1.1 °C 1026.3 hPa Calm     60 % 0.0 mm 0.0 W/m2 CLR
01:56 6.1 °C -0.8 °C 1026.6 hPa Calm     61 % 0.0 mm 0.0 W/m2 CLR
02:01 6.1 °C -0.6 °C 1026.6 hPa Calm     62 % 0.0 mm 0.0 W/m2 CLR
02:06 6.1 °C -0.4 °C 1026.6 hPa Calm     63 % 0.0 mm 0.0 W/m2 CLR
02:11 6.1 °C -0.4 °C 1026.6 hPa Calm     63 % 0.0 mm 0.0 W/m2 CLR
02:16 6.7 °C 0.1 °C 1026.6 hPa Calm     63 % 0.0 mm 0.0 W/m2 CLR
02:21 6.7 °C 0.1 °C 1026.6 hPa Calm     63 % 0.0 mm 0.0 W/m2 CLR
02:26 6.7 °C 0.1 °C 1026.6 hPa Calm     63 % 0.0 mm 0.0 W/m2 CLR
02:31 7.2 °C 0.7 °C 1026.6 hPa Calm     63 % 0.0 mm 0.0 W/m2 CLR
02:36 7.2 °C 0.8 °C 1026.6 hPa Calm     64 % 0.0 mm 0.0 W/m2 CLR
02:41 7.2 °C 0.8 °C 1026.6 hPa Calm     64 % 0.0 mm 0.0 W/m2 CLR
02:46 6.7 °C 0.3 °C 1026.6 hPa Calm     64 % 0.0 mm 0.0 W/m2 CLR
02:51 6.7 °C 0.1 °C 1026.6 hPa Calm     63 % 0.0 mm 0.0 W/m2 CLR
02:56 6.1 °C -0.4 °C 1026.6 hPa Calm     63 % 0.0 mm 0.0 W/m2 CLR
03:01 6.1 °C -0.4 °C 1026.6 hPa Calm     63 % 0.0 mm 0.0 W/m2 CLR
03:06 5.6 °C -0.7 °C 1026.6 hPa Calm     64 % 0.0 mm 0.0 W/m2 CLR
03:11 5.6 °C -0.7 °C 1026.6 hPa Calm     64 % 0.0 mm 0.0 W/m2 CLR
03:16 5.0 °C -1.1 °C 1026.6 hPa Calm     65 % 0.0 mm 0.0 W/m2 CLR
03:21 5.0 °C -1.1 °C 1026.6 hPa Calm     65 % 0.0 mm 0.0 W/m2 CLR
03:26 5.0 °C -0.8 °C 1026.6 hPa Calm     66 % 0.0 mm 0.0 W/m2 CLR
03:31 5.0 °C -0.8 °C 1026.6 hPa Calm     66 % 0.0 mm 0.0 W/m2 CLR
03:36 5.0 °C -1.1 °C 1026.6 hPa Calm     65 % 0.0 mm 0.0 W/m2 CLR
03:41 5.0 °C -1.1 °C 1026.6 hPa Calm     65 % 0.0 mm 0.0 W/m2 CLR
03:46 5.0 °C -1.3 °C 1027.0 hPa Calm     64 % 0.0 mm 0.0 W/m2 CLR
03:51 5.0 °C -1.3 °C 1027.0 hPa Calm     64 % 0.0 mm 0.0 W/m2 CLR
03:56 5.6 °C -0.7 °C 1027.0 hPa Calm     64 % 0.0 mm 0.0 W/m2 CLR
04:01 5.6 °C -0.5 °C 1027.0 hPa Calm     65 % 0.0 mm 0.0 W/m2 CLR
04:06 5.6 °C -0.3 °C 1027.0 hPa Calm     66 % 0.0 mm 0.0 W/m2 CLR
04:11 5.6 °C -0.1 °C 1027.0 hPa Calm     67 % 0.0 mm 0.0 W/m2 CLR
04:16 5.6 °C -0.1 °C 1027.0 hPa Calm     67 % 0.0 mm 0.0 W/m2 CLR
04:21 5.0 °C -0.4 °C 1026.6 hPa Calm     68 % 0.0 mm 0.0 W/m2 CLR
04:26 5.6 °C 0.1 °C 1026.6 hPa Calm     68 % 0.0 mm 0.0 W/m2 CLR
04:31 5.0 °C -0.4 °C 1026.6 hPa Calm     68 % 0.0 mm 0.0 W/m2 CLR
04:36 5.0 °C -0.4 °C 1026.6 hPa Calm     68 % 0.0 mm 0.0 W/m2 CLR
04:41 5.0 °C -0.4 °C 1026.6 hPa Calm     68 % 0.0 mm 0.0 W/m2 CLR
04:46 5.0 °C -0.4 °C 1026.6 hPa Calm     68 % 0.0 mm 0.0 W/m2 CLR
04:51 5.0 °C -0.6 °C 1026.6 hPa Calm     67 % 0.0 mm 0.0 W/m2 CLR
04:56 4.4 °C -1.2 °C 1026.6 hPa Calm     67 % 0.0 mm 0.0 W/m2 CLR
05:01 4.4 °C -0.9 °C 1026.6 hPa Calm     68 % 0.0 mm 0.0 W/m2 CLR
05:06 4.4 °C -0.8 °C 1026.6 hPa Calm     69 % 0.0 mm 0.0 W/m2 CLR
05:11 4.4 °C -0.8 °C 1026.6 hPa Calm     69 % 0.0 mm 0.0 W/m2 CLR
05:16 4.4 °C -0.8 °C 1026.6 hPa Calm     69 % 0.0 mm 0.0 W/m2 CLR
05:21 4.4 °C -0.9 °C 1026.6 hPa Calm     68 % 0.0 mm 0.0 W/m2 CLR
05:26 4.4 °C -0.9 °C 1026.3 hPa Calm     68 % 0.0 mm 0.0 W/m2 CLR
05:32 3.9 °C -1.3 °C 1026.3 hPa Calm     69 % 0.0 mm 0.0 W/m2 CLR
05:37 3.9 °C -1.3 °C 1026.3 hPa Calm     69 % 0.0 mm 0.0 W/m2 CLR
05:42 3.9 °C -1.1 °C 1026.3 hPa Calm     70 % 0.0 mm 0.0 W/m2 CLR
05:47 3.9 °C -1.1 °C 1026.3 hPa Calm     70 % 0.0 mm 0.0 W/m2 CLR
05:52 3.9 °C -1.1 °C 1026.3 hPa Calm     70 % 0.0 mm 0.0 W/m2 CLR
05:57 3.9 °C -1.1 °C 1026.3 hPa Calm     70 % 0.0 mm 0.0 W/m2 CLR
06:02 3.3 °C -1.6 °C 1026.3 hPa Calm     70 % 0.0 mm 0.0 W/m2 CLR
06:07 3.3 °C -1.6 °C 1026.3 hPa Calm     70 % 0.0 mm 0.0 W/m2 CLR
06:12 3.3 °C -1.4 °C 1026.3 hPa Calm     71 % 0.0 mm 0.0 W/m2 CLR
06:17 3.3 °C -1.4 °C 1026.3 hPa Calm     71 % 0.0 mm 0.0 W/m2 CLR
06:22 3.3 °C -1.4 °C 1026.3 hPa Calm     71 % 0.0 mm 0.0 W/m2 CLR
06:27 3.3 °C -1.2 °C 1026.3 hPa Calm     72 % 0.0 mm 0.0 W/m2 CLR
06:32 3.3 °C -1.2 °C 1026.3 hPa Calm     72 % 0.0 mm 0.0 W/m2 CLR
06:37 3.3 °C -1.2 °C 1026.3 hPa Calm     72 % 0.0 mm 0.0 W/m2 CLR
06:42 3.9 °C -0.9 °C 1026.6 hPa Calm     71 % 0.0 mm 0.0 W/m2 CLR
06:47 4.4 °C -0.3 °C 1026.3 hPa Calm     71 % 0.0 mm 0.0 W/m2 CLR
06:52 4.4 °C -0.3 °C 1026.6 hPa Calm     71 % 0.0 mm 0.0 W/m2 CLR
06:57 4.4 °C -0.3 °C 1026.6 hPa Calm     71 % 0.0 mm 0.0 W/m2 CLR
07:02 4.4 °C -0.3 °C 1026.6 hPa Calm     71 % 0.0 mm 0.0 W/m2 CLR
07:07 5.0 °C 0.2 °C 1026.6 hPa Calm     71 % 0.0 mm 0.0 W/m2 CLR
07:12 5.6 °C 0.7 °C 1026.6 hPa Calm     71 % 0.0 mm 0.0 W/m2 CLR
07:17 5.6 °C 0.7 °C 1026.6 hPa Calm     71 % 0.0 mm 0.0 W/m2 CLR
07:22 5.6 °C 0.7 °C 1026.6 hPa Calm     71 % 0.0 mm 0.0 W/m2 CLR
07:27 5.0 °C 0.4 °C 1026.6 hPa Calm     72 % 0.0 mm 0.0 W/m2 CLR
07:32 5.0 °C 0.6 °C 1026.6 hPa Calm     73 % 0.0 mm 0.0 W/m2 CLR
07:37 5.0 °C 0.6 °C 1026.6 hPa Calm     73 % 0.0 mm 0.0 W/m2 CLR
07:42 4.4 °C -0.2 °C 1026.6 hPa Calm     72 % 0.0 mm 0.0 W/m2 CLR
07:47 5.0 °C 0.2 °C 1026.6 hPa Calm     71 % 0.0 mm 0.0 W/m2 CLR
07:52 5.0 °C 0.2 °C 1026.6 hPa Calm     71 % 0.0 mm 0.0 W/m2 CLR
07:57 4.4 °C -0.2 °C 1026.6 hPa Calm     72 % 0.0 mm 0.0 W/m2 CLR
08:02 4.4 °C -0.2 °C 1026.6 hPa Calm     72 % 0.0 mm 0.0 W/m2 CLR
08:07 3.9 °C -0.5 °C 1026.6 hPa Calm     73 % 0.0 mm 0.0 W/m2 CLR
08:12 3.9 °C -0.5 °C 1026.6 hPa Calm     73 % 0.0 mm 0.0 W/m2 OVC
08:17 3.9 °C -0.3 °C 1026.6 hPa Calm     74 % 0.0 mm 0.0 W/m2 OVC
08:27 3.9 °C -0.2 °C 1027.0 hPa Calm     75 % 0.0 mm 7.0 W/m2 BKN
08:32 3.3 °C -0.9 °C 1027.0 hPa Calm     74 % 0.0 mm 9.0 W/m2 BKN
08:37 3.3 °C -0.7 °C 1027.0 hPa Calm     75 % 0.0 mm 11.0 W/m2 BKN
08:47 3.9 °C -0.5 °C 1027.0 hPa Calm     73 % 0.0 mm 16.0 W/m2 BKN
08:52 3.9 °C -0.5 °C 1027.0 hPa Calm     73 % 0.0 mm 21.0 W/m2 BKN
08:57 3.9 °C -0.5 °C 1027.0 hPa Calm     73 % 0.0 mm 32.0 W/m2 BKN
09:02 4.4 °C 0.0 °C 1027.0 hPa Calm     73 % 0.0 mm 42.0 W/m2 BKN
09:07 5.0 °C 0.6 °C 1027.3 hPa Calm     73 % 0.0 mm 51.0 W/m2 SCT
09:12 5.0 °C 0.2 °C 1027.3 hPa Calm     71 % 0.0 mm 70.0 W/m2 FEW
09:17 5.0 °C 0.2 °C 1027.3 hPa Calm     71 % 0.0 mm 83.0 W/m2 FEW
09:22 5.6 °C 0.5 °C 1027.3 hPa Calm     70 % 0.0 mm 97.0 W/m2 CLR
09:28 5.6 °C 0.5 °C 1027.3 hPa Calm     70 % 0.0 mm 116.0 W/m2 CLR
09:33 6.1 °C 0.8 °C 1027.3 hPa Calm     69 % 0.0 mm 109.0 W/m2 CLR
09:38 6.1 °C 0.4 °C 1027.3 hPa Calm     67 % 0.0 mm 149.0 W/m2 CLR
09:43 6.7 °C 0.6 °C 1027.3 hPa Calm     65 % 0.0 mm 167.0 W/m2 CLR
09:48 6.7 °C 0.3 °C 1027.7 hPa Calm     64 % 0.0 mm 104.0 W/m2 CLR
09:53 7.8 °C 1.2 °C 1027.7 hPa Calm     63 % 0.0 mm 202.0 W/m2 CLR
09:58 7.8 °C 1.2 °C 1027.7 hPa Calm     63 % 0.0 mm 220.0 W/m2 CLR
10:03 7.8 °C 0.5 °C 1027.7 hPa Calm     60 % 0.0 mm 236.0 W/m2 CLR
10:08 8.3 °C 0.8 °C 1027.7 hPa Calm     59 % 0.0 mm 250.0 W/m2 CLR
10:13 8.9 °C 1.3 °C 1027.7 hPa Calm     59 % 0.0 mm 269.0 W/m2 CLR
10:18 8.9 °C 0.8 °C 1027.3 hPa Calm     57 % 0.0 mm 279.0 W/m2 CLR
10:23 9.4 °C 1.1 °C 1027.7 hPa Calm     56 % 0.0 mm 288.0 W/m2 CLR
10:28 10.0 °C 1.4 °C 1027.7 hPa Calm     55 % 0.0 mm 304.0 W/m2 CLR
10:33 10.6 °C 1.6 °C 1027.7 hPa Calm     54 % 0.0 mm 316.0 W/m2 CLR
10:38 11.1 °C 2.2 °C 1027.7 hPa Calm     54 % 0.0 mm 332.0 W/m2 CLR
10:43 11.7 °C 2.4 °C 1027.3 hPa Calm     53 % 0.0 mm 343.0 W/m2 CLR
10:48 12.2 °C 2.7 °C 1027.3 hPa Calm     52 % 0.0 mm 357.0 W/m2 CLR
10:53 12.8 °C 2.9 °C 1027.3 hPa Calm     51 % 0.0 mm 371.0 W/m2 CLR
10:58 13.3 °C 3.4 °C 1027.3 hPa Calm     51 % 0.0 mm 385.0 W/m2 CLR
11:03 13.9 °C 3.6 °C 1027.3 hPa Calm     50 % 0.0 mm 394.0 W/m2 CLR
11:08 14.4 °C 3.8 °C 1027.3 hPa Calm     49 % 0.0 mm 408.0 W/m2 CLR
11:13 15.0 °C 4.1 °C 1027.3 hPa Calm     48 % 0.0 mm 418.0 W/m2 CLR
11:18 15.6 °C 4.3 °C 1027.3 hPa Calm     47 % 0.0 mm 429.0 W/m2 CLR
11:23 15.6 °C 3.9 °C 1027.3 hPa Calm     46 % 0.0 mm 439.0 W/m2 CLR
11:28 16.1 °C 3.8 °C 1027.3 hPa Calm     44 % 0.0 mm 452.0 W/m2 CLR
11:33 16.1 °C 3.5 °C 1027.3 hPa Calm     43 % 0.0 mm 462.0 W/m2 CLR
11:38 16.7 °C 3.7 °C 1027.3 hPa Calm   1.6 km/h 42 % 0.0 mm 471.0 W/m2 CLR
11:43 17.2 °C 4.2 °C 1027.0 hPa NNW 5.6 km/h 5.6 km/h 42 % 0.0 mm 480.0 W/m2 CLR
11:48 17.8 °C 4.3 °C 1027.0 hPa NNW 5.6 km/h 5.6 km/h 41 % 0.0 mm 478.0 W/m2 CLR
11:53 18.9 °C 5.7 °C 1027.0 hPa North 5.6 km/h 5.6 km/h 42 % 0.0 mm 490.0 W/m2 CLR
11:58 19.4 °C 5.8 °C 1027.0 hPa NNW 5.6 km/h 5.6 km/h 41 % 0.0 mm 506.0 W/m2 CLR
12:03 19.4 °C 5.8 °C 1027.0 hPa North 5.6 km/h 5.6 km/h 41 % 0.0 mm 512.0 W/m2 CLR
12:08 20.0 °C 6.0 °C 1027.0 hPa NW 9.3 km/h 9.3 km/h 40 % 0.0 mm 522.0 W/m2 CLR
12:13 20.0 °C 6.0 °C 1027.0 hPa NNW 14.5 km/h 14.5 km/h 40 % 0.0 mm 531.0 W/m2 CLR
12:18 20.0 °C 6.0 °C 1027.0 hPa NNW 7.4 km/h 7.4 km/h 40 % 0.0 mm 536.0 W/m2 CLR
12:23 20.6 °C 6.1 °C 1027.0 hPa NNW 6.4 km/h 6.6 km/h 39 % 0.0 mm 543.0 W/m2 CLR
12:29 20.6 °C 6.1 °C 1027.0 hPa North 9.3 km/h 9.3 km/h 39 % 0.0 mm 548.0 W/m2 CLR
12:34 20.6 °C 6.1 °C 1027.0 hPa NW 13.0 km/h 13.0 km/h 39 % 0.0 mm 554.0 W/m2 CLR
12:39 21.1 °C 6.2 °C 1027.0 hPa NNW 14.8 km/h 14.8 km/h 38 % 0.0 mm 561.0 W/m2 CLR
12:44 21.1 °C 6.2 °C 1027.0 hPa NNW 14.8 km/h 14.8 km/h 38 % 0.0 mm 566.0 W/m2 CLR
12:49 21.7 °C 6.3 °C 1027.0 hPa NW 16.7 km/h 16.7 km/h 37 % 0.0 mm 570.0 W/m2 CLR
12:54 21.7 °C 6.3 °C 1027.0 hPa NNW 14.5 km/h 14.5 km/h 37 % 0.0 mm 575.0 W/m2 CLR
12:59 21.7 °C 6.3 °C 1027.0 hPa NNW 13.0 km/h 13.0 km/h 37 % 0.0 mm 578.0 W/m2 CLR
13:04 21.7 °C 5.9 °C 1027.0 hPa NW 18.5 km/h 18.5 km/h 36 % 0.0 mm 582.0 W/m2 CLR
13:09 21.7 °C 5.9 °C 1027.0 hPa NW 13.0 km/h 13.0 km/h 36 % 0.0 mm 584.0 W/m2 CLR
13:14 21.7 °C 5.9 °C 1027.0 hPa NW 7.4 km/h 7.4 km/h 36 % 0.0 mm 587.0 W/m2 CLR
13:19 22.2 °C 6.0 °C 1026.6 hPa NW 13.0 km/h 13.0 km/h 35 % 0.0 mm 591.0 W/m2 CLR
13:24 22.2 °C 6.0 °C 1026.6 hPa NNW 14.8 km/h 14.8 km/h 35 % 0.0 mm 592.0 W/m2 CLR
13:29 22.2 °C 6.0 °C 1026.6 hPa North 5.6 km/h 5.6 km/h 35 % 0.0 mm 594.0 W/m2 CLR
13:34 22.2 °C 5.6 °C 1026.6 hPa NW 7.4 km/h 7.4 km/h 34 % 0.0 mm 596.0 W/m2 CLR
13:39 22.2 °C 5.6 °C 1026.6 hPa NNW 9.3 km/h 9.3 km/h 34 % 0.0 mm 596.0 W/m2 CLR
13:44 22.8 °C 6.1 °C 1026.3 hPa North 9.7 km/h 9.7 km/h 34 % 0.0 mm 596.0 W/m2 CLR
13:49 22.8 °C 6.1 °C 1026.3 hPa NW 7.4 km/h 7.4 km/h 34 % 0.0 mm 596.0 W/m2 CLR
13:54 23.3 °C 6.2 °C 1026.3 hPa NW 7.4 km/h 7.4 km/h 33 % 0.0 mm 594.0 W/m2 CLR
13:59 23.3 °C 6.2 °C 1026.3 hPa NNW 8.0 km/h 8.0 km/h 33 % 0.0 mm 594.0 W/m2 CLR
14:04 23.3 °C 6.2 °C 1026.3 hPa NW 14.8 km/h 14.8 km/h 33 % 0.0 mm 594.0 W/m2 CLR
14:09 23.3 °C 6.2 °C 1026.3 hPa NW 9.3 km/h 9.3 km/h 33 % 0.0 mm 591.0 W/m2 CLR
14:14 23.3 °C 6.2 °C 1026.0 hPa NNW 9.3 km/h 9.3 km/h 33 % 0.0 mm 589.0 W/m2 CLR
14:19 23.9 °C 6.6 °C 1026.0 hPa NW 14.5 km/h 14.5 km/h 33 % 0.0 mm 587.0 W/m2 CLR
14:24 23.9 °C 6.6 °C 1026.0 hPa NW 9.7 km/h 9.7 km/h 33 % 0.0 mm 585.0 W/m2 CLR
14:29 23.9 °C 6.2 °C 1026.0 hPa WNW 7.4 km/h 7.4 km/h 32 % 0.0 mm 582.0 W/m2 CLR
14:34 24.4 °C 7.1 °C 1025.6 hPa NW 16.7 km/h 16.7 km/h 33 % 0.0 mm 578.0 W/m2 CLR
14:39 24.4 °C 6.7 °C 1025.6 hPa NNW 13.0 km/h 13.0 km/h 32 % 0.0 mm 577.0 W/m2 CLR
14:44 24.4 °C 6.7 °C 1025.6 hPa NW 14.8 km/h 14.8 km/h 32 % 0.0 mm 570.0 W/m2 CLR
14:49 24.4 °C 6.7 °C 1025.6 hPa NNW 14.8 km/h 14.8 km/h 32 % 0.0 mm 566.0 W/m2 CLR
14:54 24.4 °C 6.2 °C 1025.3 hPa NNW 14.5 km/h 14.5 km/h 31 % 0.0 mm 561.0 W/m2 CLR
14:59 24.4 °C 6.2 °C 1025.3 hPa NW 14.8 km/h 14.8 km/h 31 % 0.0 mm 557.0 W/m2 CLR
15:04 24.4 °C 6.2 °C 1025.3 hPa NW 16.7 km/h 16.7 km/h 31 % 0.0 mm 548.0 W/m2 CLR
15:09 25.0 °C 6.7 °C 1025.3 hPa North 18.5 km/h 18.5 km/h 31 % 0.0 mm 543.0 W/m2 CLR
15:14 25.0 °C 6.7 °C 1025.3 hPa WNW 13.0 km/h 13.0 km/h 31 % 0.0 mm 536.0 W/m2 CLR
15:19 25.0 °C 6.7 °C 1025.3 hPa NNW 18.5 km/h 18.5 km/h 31 % 0.0 mm 531.0 W/m2 CLR
15:24 25.6 °C 7.2 °C 1025.3 hPa NW 14.8 km/h 14.8 km/h 31 % 0.0 mm 513.0 W/m2 CLR
15:29 25.0 °C 6.7 °C 1025.3 hPa NW 16.7 km/h 16.7 km/h 31 % 0.0 mm 501.0 W/m2 CLR
15:34 25.0 °C 6.7 °C 1025.3 hPa NW 14.8 km/h 14.8 km/h 31 % 0.0 mm 490.0 W/m2 CLR
15:39 25.6 °C 7.2 °C 1024.9 hPa NW 13.0 km/h 13.0 km/h 31 % 0.0 mm 489.0 W/m2 CLR
15:44 25.6 °C 7.2 °C 1024.9 hPa NW 22.2 km/h 22.2 km/h 31 % 0.0 mm 482.0 W/m2 CLR
15:49 25.6 °C 7.2 °C 1024.9 hPa NNW 18.5 km/h 18.5 km/h 31 % 0.0 mm 475.0 W/m2 CLR
15:54 25.6 °C 7.2 °C 1024.9 hPa NNW 18.5 km/h 18.5 km/h 31 % 0.0 mm 466.0 W/m2 CLR
16:04 25.6 °C 7.6 °C 1024.9 hPa NW 14.8 km/h 14.8 km/h 32 % 0.0 mm 450.0 W/m2 CLR
16:09 25.6 °C 7.6 °C 1024.9 hPa NNW 19.3 km/h 19.3 km/h 32 % 0.0 mm 438.0 W/m2 CLR
16:14 25.6 °C 8.1 °C 1024.9 hPa WNW 14.8 km/h 14.8 km/h 33 % 0.0 mm 427.0 W/m2 CLR
16:19 25.6 °C 8.1 °C 1024.9 hPa NW 18.5 km/h 18.5 km/h 33 % 0.0 mm 415.0 W/m2 CLR
16:24 25.6 °C 7.6 °C 1024.9 hPa NW 17.7 km/h 17.7 km/h 32 % 0.0 mm 404.0 W/m2 CLR
16:29 26.1 °C 8.1 °C 1024.9 hPa NW 14.8 km/h 14.8 km/h 32 % 0.0 mm 387.0 W/m2 CLR
16:30 26.1 °C 8.1 °C 1024.9 hPa NNW 14.8 km/h 14.8 km/h 32 % 0.0 mm 387.0 W/m2 CLR
16:34 25.6 °C 7.6 °C 1024.9 hPa NW 16.7 km/h 16.7 km/h 32 % 0.0 mm 367.0 W/m2 CLR
16:39 25.6 °C 7.6 °C 1024.9 hPa NW 16.7 km/h 16.7 km/h 32 % 0.0 mm 353.0 W/m2 CLR
16:44 25.6 °C 7.6 °C 1024.9 hPa North 14.8 km/h 14.8 km/h 32 % 0.0 mm 302.0 W/m2 CLR
16:50 25.6 °C 7.6 °C 1024.9 hPa North 13.0 km/h 13.0 km/h 32 % 0.0 mm 313.0 W/m2 CLR
16:55 25.0 °C 7.2 °C 1024.9 hPa NW 16.7 km/h 16.7 km/h 32 % 0.0 mm 315.0 W/m2 CLR
17:00 25.6 °C 8.1 °C 1024.9 hPa NNW 14.8 km/h 14.8 km/h 33 % 0.0 mm 297.0 W/m2 CLR
17:05 25.6 °C 8.6 °C 1024.9 hPa NW 9.3 km/h 9.3 km/h 34 % 0.0 mm 290.0 W/m2 CLR
17:10 25.6 °C 8.6 °C 1024.9 hPa NNW 20.4 km/h 20.4 km/h 34 % 0.0 mm 278.0 W/m2 CLR
17:15 25.6 °C 8.6 °C 1024.9 hPa NW 13.0 km/h 13.0 km/h 34 % 0.0 mm 269.0 W/m2 CLR
17:20 25.0 °C 8.1 °C 1024.9 hPa North 7.4 km/h   34 % 0.0 mm 255.0 W/m2 CLR
17:25 25.0 °C 8.1 °C 1025.3 hPa NNW 14.8 km/h 14.8 km/h 34 % 0.0 mm 239.0 W/m2 CLR
17:30 25.0 °C 8.1 °C 1025.3 hPa NNW 5.6 km/h 5.6 km/h 34 % 0.0 mm 220.0 W/m2 CLR
17:35 25.0 °C 8.1 °C 1025.3 hPa NNE 5.6 km/h 5.6 km/h 34 % 0.0 mm 202.0 W/m2 CLR
17:40 24.4 °C 7.6 °C 1025.3 hPa NNE 9.3 km/h 9.3 km/h 34 % 0.0 mm 188.0 W/m2 CLR
17:45 24.4 °C 8.0 °C 1025.3 hPa NNE 5.6 km/h 5.6 km/h 35 % 0.0 mm 176.0 W/m2 CLR
17:50 24.4 °C 8.4 °C 1025.3 hPa NE 11.1 km/h 11.1 km/h 36 % 0.0 mm 160.0 W/m2 CLR
17:55 23.9 °C 7.9 °C 1025.3 hPa NE 11.3 km/h 11.3 km/h 36 % 0.0 mm 142.0 W/m2 CLR
18:00 23.3 °C 7.8 °C 1025.3 hPa NNE 9.3 km/h 9.3 km/h 37 % 0.0 mm 121.0 W/m2 CLR
18:05 23.3 °C 8.2 °C 1025.3 hPa North 5.6 km/h 5.6 km/h 38 % 0.0 mm 105.0 W/m2 CLR
18:10 23.3 °C 9.7 °C 1025.3 hPa NE 8.0 km/h 8.0 km/h 42 % 0.0 mm 86.0 W/m2 CLR
18:15 23.3 °C 10.1 °C 1025.3 hPa NNE 5.6 km/h 5.6 km/h 43 % 0.0 mm 65.0 W/m2 SCT
18:20 22.2 °C 9.7 °C 1025.3 hPa NE 11.1 km/h 11.1 km/h 45 % 0.0 mm 54.0 W/m2 SCT
18:25 22.2 °C 10.1 °C 1025.3 hPa NE 3.7 km/h 3.7 km/h 46 % 0.0 mm 47.0 W/m2 SCT
18:30 21.7 °C 9.8 °C 1025.3 hPa Calm     47 % 0.0 mm 39.0 W/m2 BKN
18:35 20.6 °C 9.2 °C 1025.3 hPa Calm     48 % 0.0 mm 28.0 W/m2 BKN
18:40 20.0 °C 8.9 °C 1025.3 hPa Calm     49 % 0.0 mm 21.0 W/m2 BKN
18:45 18.9 °C 7.9 °C 1025.6 hPa Calm     49 % 0.0 mm 16.0 W/m2 BKN
18:50 18.3 °C 7.7 °C 1025.3 hPa Calm     50 % 0.0 mm 12.0 W/m2 BKN
18:55 17.8 °C 7.2 °C 1025.6 hPa Calm     50 % 0.0 mm 11.0 W/m2 BKN
19:00 17.2 °C 7.0 °C 1025.6 hPa Calm     51 % 0.0 mm 7.0 W/m2 BKN
19:05 16.7 °C 6.8 °C 1025.6 hPa Calm     52 % 0.0 mm 0.0 W/m2 OVC
19:10 16.1 °C 6.5 °C 1025.6 hPa Calm     53 % 0.0 mm 0.0 W/m2 OVC
19:15 16.1 °C 6.5 °C 1025.6 hPa Calm     53 % 0.0 mm 0.0 W/m2 CLR
19:20 15.6 °C 6.0 °C 1025.6 hPa Calm     53 % 0.0 mm 0.0 W/m2 CLR
19:25 15.6 °C 6.3 °C 1026.0 hPa Calm     54 % 0.0 mm 0.0 W/m2 CLR
19:30 15.0 °C 6.3 °C 1026.0 hPa Calm     56 % 0.0 mm 0.0 W/m2 CLR
19:35 15.0 °C 6.3 °C 1026.0 hPa Calm     56 % 0.0 mm 0.0 W/m2 CLR
19:40 15.0 °C 6.3 °C 1026.0 hPa Calm     56 % 0.0 mm 0.0 W/m2 CLR
19:45 15.6 °C 6.8 °C 1026.0 hPa Calm     56 % 0.0 mm 0.0 W/m2 CLR
19:50 16.1 °C 7.6 °C 1026.0 hPa Calm     57 % 0.0 mm 0.0 W/m2 CLR
19:55 16.1 °C 7.8 °C 1026.0 hPa Calm     58 % 0.0 mm 0.0 W/m2 CLR
20:00 16.1 °C 8.1 °C 1026.0 hPa Calm     59 % 0.0 mm 0.0 W/m2 CLR
20:05 16.1 °C 8.3 °C 1026.0 hPa Calm     60 % 0.0 mm 0.0 W/m2 CLR
20:10 16.1 °C 8.3 °C 1026.0 hPa Calm     60 % 0.0 mm 0.0 W/m2 CLR
20:15 16.1 °C 8.3 °C 1026.3 hPa Calm     60 % 0.0 mm 0.0 W/m2 CLR
20:20 15.6 °C 7.8 °C 1026.3 hPa Calm     60 % 0.0 mm 0.0 W/m2 CLR
20:25 15.0 °C 7.6 °C 1026.3 hPa Calm     61 % 0.0 mm 0.0 W/m2 CLR
20:30 14.4 °C 7.2 °C 1026.3 hPa Calm     62 % 0.0 mm 0.0 W/m2 CLR
20:35 14.4 °C 7.2 °C 1026.3 hPa Calm     62 % 0.0 mm 0.0 W/m2 CLR
20:40 13.9 °C 6.7 °C 1026.3 hPa Calm     62 % 0.0 mm 0.0 W/m2 CLR
20:45 13.9 °C 6.7 °C 1026.6 hPa Calm     62 % 0.0 mm 0.0 W/m2 CLR
20:50 13.3 °C 6.4 °C 1026.6 hPa Calm     63 % 0.0 mm 0.0 W/m2 CLR
20:55 13.3 °C 6.4 °C 1026.6 hPa Calm     63 % 0.0 mm 0.0 W/m2 CLR
21:00 12.8 °C 5.9 °C 1026.6 hPa Calm     63 % 0.0 mm 0.0 W/m2 CLR
21:05 12.2 °C 5.6 °C 1026.6 hPa Calm     64 % 0.0 mm 0.0 W/m2 CLR
21:10 12.2 °C 5.6 °C 1026.6 hPa Calm     64 % 0.0 mm 0.0 W/m2 CLR
21:15 11.7 °C 5.1 °C 1026.6 hPa Calm     64 % 0.0 mm 0.0 W/m2 CLR
21:20 11.1 °C 4.8 °C 1026.6 hPa Calm     65 % 0.0 mm 0.0 W/m2 CLR
21:25 11.1 °C 4.8 °C 1027.0 hPa Calm     65 % 0.0 mm 0.0 W/m2 CLR
21:30 11.1 °C 5.0 °C 1027.0 hPa Calm     66 % 0.0 mm 0.0 W/m2 CLR
21:35 10.6 °C 4.4 °C 1027.0 hPa Calm     66 % 0.0 mm 0.0 W/m2 CLR
21:40 10.6 °C 4.9 °C 1027.0 hPa Calm     68 % 0.0 mm 0.0 W/m2 CLR
21:45 10.6 °C 4.9 °C 1027.0 hPa Calm     68 % 0.0 mm 0.0 W/m2 CLR
21:50 10.6 °C 4.9 °C 1027.0 hPa Calm     68 % 0.0 mm 0.0 W/m2 CLR
21:55 10.6 °C 4.9 °C 1027.0 hPa Calm     68 % 0.0 mm 0.0 W/m2 CLR
22:00 10.6 °C 4.9 °C 1027.0 hPa Calm     68 % 0.0 mm 0.0 W/m2 CLR
22:05 10.6 °C 5.1 °C 1027.3 hPa Calm     69 % 0.0 mm 0.0 W/m2 CLR
22:10 11.1 °C 5.8 °C 1027.0 hPa Calm     70 % 0.0 mm 0.0 W/m2 CLR
22:15 11.1 °C 5.8 °C 1027.3 hPa Calm     70 % 0.0 mm 0.0 W/m2 CLR
22:20 10.6 °C 5.3 °C 1027.3 hPa Calm     70 % 0.0 mm 0.0 W/m2 CLR
22:25 10.6 °C 5.3 °C 1027.3 hPa Calm     70 % 0.0 mm 0.0 W/m2 CLR
22:30 10.6 °C 5.3 °C 1027.3 hPa Calm     70 % 0.0 mm 0.0 W/m2 CLR
22:35 10.6 °C 5.3 °C 1027.3 hPa Calm     70 % 0.0 mm 0.0 W/m2 CLR
22:40 10.0 °C 5.2 °C 1027.7 hPa Calm     72 % 0.0 mm 0.0 W/m2 CLR
23:06 10.0 °C 5.2 °C 1027.7 hPa Calm     72 % 0.0 mm 0.0 W/m2 CLR
23:11 10.0 °C 5.0 °C 1027.7 hPa Calm     71 % 0.0 mm 0.0 W/m2 CLR
23:16 9.4 °C 4.7 °C 1027.7 hPa Calm     72 % 0.0 mm 0.0 W/m2 CLR
23:21 9.4 °C 4.7 °C 1027.7 hPa Calm     72 % 0.0 mm 0.0 W/m2 CLR
23:26 8.9 °C 4.1 °C 1027.7 hPa Calm     72 % 0.0 mm 0.0 W/m2 CLR
23:31 8.9 °C 4.1 °C 1028.0 hPa Calm     72 % 0.0 mm 0.0 W/m2 CLR
23:36 8.9 °C 4.1 °C 1028.0 hPa Calm     72 % 0.0 mm 0.0 W/m2 CLR
23:41 8.9 °C 4.1 °C 1028.0 hPa Calm     72 % 0.0 mm 0.0 W/m2 CLR
23:46 8.9 °C 4.3 °C 1028.0 hPa Calm     73 % 0.0 mm 0.0 W/m2 CLR
23:51 8.9 °C 4.5 °C 1028.0 hPa Calm     74 % 0.0 mm 0.0 W/m2 CLR
23:56 8.9 °C 4.5 °C 1028.0 hPa Calm     74 % 0.0 mm 0.0 W/m2 CLR
Lo Temps de Massalio
Compliments of Weather Underground - 1.25 mb